createdAt,value
2022-12-03T00:00:12.810Z,55.39
2022-12-03T00:03:15.638Z,55.45
2022-12-03T00:06:18.033Z,55.45
2022-12-03T00:09:20.308Z,55.49
2022-12-03T00:12:22.455Z,55.49
2022-12-03T00:15:24.606Z,55.47
2022-12-03T00:18:26.754Z,55.45
2022-12-03T00:21:28.870Z,55.49
2022-12-03T00:24:30.956Z,55.48
2022-12-03T00:27:33.026Z,55.48
2022-12-03T00:30:35.194Z,55.48
2022-12-03T00:33:37.248Z,55.52
2022-12-03T00:36:39.352Z,55.46
2022-12-03T00:39:41.473Z,55.45
2022-12-03T00:42:43.605Z,55.49
2022-12-03T00:45:45.684Z,55.49
2022-12-03T00:48:47.782Z,55.42
2022-12-03T00:51:50.047Z,55.36
2022-12-03T00:54:52.471Z,55.47
2022-12-03T00:57:54.740Z,55.46
2022-12-03T01:00:56.847Z,55.55
2022-12-03T01:03:58.999Z,55.50
2022-12-03T01:07:01.587Z,55.52
2022-12-03T01:10:05.444Z,55.56
2022-12-03T01:13:07.800Z,55.51
2022-12-03T01:16:10.140Z,55.58
2022-12-03T01:19:16.439Z,55.58
2022-12-03T01:22:18.988Z,55.62
2022-12-03T01:25:21.281Z,55.61
2022-12-03T01:28:23.391Z,55.66
2022-12-03T01:31:44.279Z,55.63
2022-12-03T01:34:47.917Z,55.65
2022-12-03T01:37:50.006Z,55.68
2022-12-03T01:40:52.192Z,55.65
2022-12-03T01:43:54.889Z,55.64
2022-12-03T01:46:59.067Z,55.68
2022-12-03T01:50:15.216Z,55.69
2022-12-03T01:53:18.961Z,55.70
2022-12-03T01:56:21.306Z,55.65
2022-12-03T01:59:32.747Z,55.60
2022-12-03T02:02:35.534Z,55.72
2022-12-03T02:05:38.540Z,55.69
2022-12-03T02:08:41.627Z,55.68
2022-12-03T02:11:46.954Z,55.71
2022-12-03T02:14:49.202Z,55.66
2022-12-03T02:17:51.888Z,55.71
2022-12-03T02:21:13.993Z,55.65
2022-12-03T02:24:25.776Z,55.68
2022-12-03T02:27:28.646Z,55.68
2022-12-03T02:30:32.022Z,55.71
2022-12-03T02:33:34.277Z,55.68
2022-12-03T02:36:37.398Z,55.68
2022-12-03T02:39:43.259Z,55.72
2022-12-03T02:42:45.829Z,55.74
2022-12-03T02:45:53.406Z,55.76
2022-12-03T02:48:56.042Z,55.73
2022-12-03T02:51:58.189Z,55.72
2022-12-03T02:55:01.564Z,55.72
2022-12-03T02:58:04.937Z,55.68
2022-12-03T03:01:08.192Z,55.68
2022-12-03T03:04:10.468Z,55.69
2022-12-03T03:07:12.763Z,55.74
2022-12-03T03:10:17.053Z,55.78
2022-12-03T03:13:20.353Z,55.71
2022-12-03T03:16:22.618Z,55.70
2022-12-03T03:19:28.656Z,55.71
2022-12-03T03:22:35.696Z,55.74
2022-12-03T03:25:39.304Z,55.74
2022-12-03T03:28:45.637Z,55.77
2022-12-03T03:31:47.965Z,55.72
2022-12-03T03:34:50.319Z,55.70
2022-12-03T03:37:53.703Z,55.78
2022-12-03T03:40:57.942Z,55.75
2022-12-03T03:44:00.449Z,55.77
2022-12-03T03:47:02.906Z,55.74
2022-12-03T03:50:06.462Z,55.78
2022-12-03T03:53:09.092Z,55.77
2022-12-03T03:56:12.948Z,55.81
2022-12-03T03:59:15.501Z,55.78
2022-12-03T04:02:22.858Z,55.75
2022-12-03T04:05:25.723Z,55.78
2022-12-03T04:08:28.582Z,55.81
2022-12-03T04:11:49.225Z,55.82
2022-12-03T04:14:51.607Z,55.78
2022-12-03T04:18:12.867Z,55.79
2022-12-03T04:21:36.325Z,55.75
2022-12-03T04:24:38.470Z,55.82
2022-12-03T04:27:59.055Z,55.74
2022-12-03T04:31:21.322Z,55.80
2022-12-03T04:34:41.913Z,55.80
2022-12-03T04:37:44.077Z,55.75
2022-12-03T04:41:01.126Z,55.81
2022-12-03T04:44:21.767Z,55.73
2022-12-03T04:47:23.856Z,55.79
2022-12-03T04:50:25.936Z,55.79
2022-12-03T04:53:28.039Z,55.78
2022-12-03T04:56:30.151Z,55.78
2022-12-03T04:59:32.507Z,55.79
2022-12-03T05:02:34.662Z,55.78
2022-12-03T05:05:36.798Z,55.80
2022-12-03T05:08:38.915Z,55.81
2022-12-03T05:11:41.860Z,55.75
2022-12-03T05:14:44.038Z,55.78
2022-12-03T05:17:46.137Z,55.81
2022-12-03T05:20:53.164Z,55.80
2022-12-03T05:23:56.011Z,55.78
2022-12-03T05:26:58.082Z,55.81
2022-12-03T05:30:00.229Z,55.75
2022-12-03T05:33:02.507Z,55.75
2022-12-03T05:36:04.785Z,55.74
2022-12-03T05:39:06.945Z,55.75
2022-12-03T05:42:28.874Z,55.74
2022-12-03T05:45:35.539Z,55.75
2022-12-03T05:48:37.580Z,55.72
2022-12-03T05:51:39.634Z,55.72
2022-12-03T05:54:41.746Z,55.68
2022-12-03T05:57:44.060Z,55.71
2022-12-03T06:00:46.133Z,55.65
2022-12-03T06:03:48.332Z,55.67
2022-12-03T06:06:50.562Z,55.47
2022-12-03T06:09:52.652Z,55.35
2022-12-03T06:12:55.099Z,55.28
2022-12-03T06:15:57.232Z,55.22
2022-12-03T06:18:59.353Z,55.04
2022-12-03T06:22:01.477Z,54.80
2022-12-03T06:25:06.818Z,54.64
2022-12-03T06:28:09.519Z,54.35
2022-12-03T06:31:12.063Z,54.13
2022-12-03T06:34:14.251Z,53.90
2022-12-03T06:37:16.329Z,53.85
2022-12-03T06:40:18.784Z,53.84
2022-12-03T06:43:20.873Z,53.85
2022-12-03T06:46:22.981Z,53.82
2022-12-03T06:49:25.107Z,53.79
2022-12-03T06:52:27.175Z,53.80
2022-12-03T06:55:29.302Z,53.43
2022-12-03T06:58:31.387Z,52.78
2022-12-03T07:01:33.576Z,52.59
2022-12-03T07:04:35.709Z,52.56
2022-12-03T07:07:37.845Z,52.44
2022-12-03T07:10:40.117Z,52.42
2022-12-03T07:13:42.186Z,52.42
2022-12-03T07:16:44.402Z,52.43
2022-12-03T07:19:46.627Z,52.51
2022-12-03T07:22:48.768Z,52.65
2022-12-03T07:25:50.837Z,52.61
2022-12-03T07:28:53.197Z,52.31
2022-12-03T07:31:55.329Z,52.23
2022-12-03T07:34:57.450Z,52.33
2022-12-03T07:37:59.494Z,52.33
2022-12-03T07:41:01.628Z,52.20
2022-12-03T07:44:06.587Z,52.10
2022-12-03T07:47:12.971Z,51.98
2022-12-03T07:50:15.220Z,51.96
2022-12-03T07:53:17.361Z,52.05
2022-12-03T07:56:19.454Z,51.85
2022-12-03T07:59:21.666Z,51.69
2022-12-03T08:02:23.765Z,51.75
2022-12-03T08:05:26.856Z,51.89
2022-12-03T08:08:28.968Z,52.09
2022-12-03T08:11:32.187Z,51.78
2022-12-03T08:14:35.544Z,51.67
2022-12-03T08:17:39.547Z,51.82
2022-12-03T08:20:43.329Z,51.81
2022-12-03T08:23:45.706Z,51.66
2022-12-03T08:26:49.520Z,51.20
2022-12-03T08:30:05.455Z,51.08
2022-12-03T08:33:35.430Z,51.24
2022-12-03T08:36:37.552Z,51.25
2022-12-03T08:39:46.999Z,50.95
2022-12-03T08:42:49.757Z,50.67
2022-12-03T08:45:53.804Z,50.72
2022-12-03T08:48:55.978Z,50.86
2022-12-03T08:52:01.686Z,50.91
2022-12-03T08:55:34.761Z,51.05
2022-12-03T08:58:43.776Z,51.04
2022-12-03T09:01:47.001Z,51.08
2022-12-03T09:04:49.238Z,51.02
2022-12-03T09:07:51.375Z,50.78
2022-12-03T09:10:53.556Z,50.72
2022-12-03T09:13:55.633Z,50.58
2022-12-03T09:16:57.859Z,50.61
2022-12-03T09:20:00.207Z,50.47
2022-12-03T09:23:02.866Z,49.21
2022-12-03T09:26:05.053Z,49.38
2022-12-03T09:29:11.867Z,49.66
2022-12-03T09:32:18.349Z,49.58
2022-12-03T09:35:20.922Z,49.31
2022-12-03T09:38:22.997Z,49.06
2022-12-03T09:41:25.621Z,48.95
2022-12-03T09:44:30.574Z,48.95
2022-12-03T09:47:32.852Z,49.10
2022-12-03T09:50:37.283Z,48.70
2022-12-03T09:53:41.463Z,48.22
2022-12-03T09:56:43.769Z,48.34
2022-12-03T09:59:46.067Z,48.49
2022-12-03T10:02:49.475Z,49.03
2022-12-03T10:05:53.492Z,49.05
2022-12-03T10:08:56.012Z,49.21
2022-12-03T10:11:59.717Z,49.55
2022-12-03T10:15:01.997Z,50.34
2022-12-03T10:18:22.183Z,49.90
2022-12-03T10:21:28.788Z,49.82
2022-12-03T10:24:35.992Z,50.08
2022-12-03T10:27:38.787Z,50.11
2022-12-03T10:30:55.458Z,50.07
2022-12-03T10:33:58.742Z,50.05
2022-12-03T10:37:21.682Z,50.02
2022-12-03T10:40:44.690Z,50.20
2022-12-03T10:43:46.782Z,50.02
2022-12-03T10:47:10.705Z,50.11
2022-12-03T10:50:19.295Z,50.18
2022-12-03T10:53:26.124Z,49.80
2022-12-03T10:56:28.608Z,49.86
2022-12-03T10:59:33.360Z,50.08
2022-12-03T11:02:35.496Z,49.64
2022-12-03T11:05:37.644Z,49.46
2022-12-03T11:08:59.604Z,49.20
2022-12-03T11:12:06.474Z,49.43
2022-12-03T11:15:15.963Z,49.44
2022-12-03T11:18:36.491Z,48.73
2022-12-03T11:22:09.675Z,48.13
2022-12-03T11:25:44.565Z,47.75
2022-12-03T11:28:46.656Z,47.17
2022-12-03T11:31:49.009Z,46.73
2022-12-03T11:34:51.440Z,46.13
2022-12-03T11:37:53.823Z,45.28
2022-12-03T11:41:29.573Z,45.06
2022-12-03T11:44:32.992Z,45.64
2022-12-03T11:47:41.193Z,45.83
2022-12-03T11:50:49.416Z,46.05
2022-12-03T11:53:54.320Z,46.14
2022-12-03T11:56:56.445Z,46.04
2022-12-03T12:00:00.977Z,46.10
2022-12-03T12:03:03.097Z,46.28
2022-12-03T12:06:11.363Z,46.39
2022-12-03T12:09:13.443Z,46.80
2022-12-03T12:12:39.996Z,47.28
2022-12-03T12:15:44.748Z,47.38
2022-12-03T12:18:55.201Z,47.34
2022-12-03T12:22:19.222Z,47.61
2022-12-03T12:25:30.120Z,48.11
2022-12-03T12:28:32.223Z,48.53
2022-12-03T12:31:34.387Z,48.89
2022-12-03T12:34:41.951Z,49.53
2022-12-03T12:37:59.828Z,51.05
2022-12-03T12:41:07.429Z,52.65
2022-12-03T12:44:15.737Z,52.99
2022-12-03T12:47:17.924Z,53.04
2022-12-03T12:50:20.283Z,52.85
2022-12-03T12:53:27.269Z,53.28
2022-12-03T12:56:32.787Z,53.55
2022-12-03T12:59:34.878Z,53.32
2022-12-03T13:02:42.704Z,53.53
2022-12-03T13:05:47.613Z,53.67
2022-12-03T13:08:50.420Z,53.75
2022-12-03T13:11:54.039Z,53.73
2022-12-03T13:14:59.309Z,53.27
2022-12-03T13:18:10.541Z,53.25
2022-12-03T13:21:23.553Z,53.52
2022-12-03T13:24:37.658Z,53.49
2022-12-03T13:27:39.739Z,52.46
2022-12-03T13:30:41.850Z,52.29
2022-12-03T13:33:43.917Z,52.21
2022-12-03T13:36:52.016Z,52.01
2022-12-03T13:40:06.055Z,51.57
2022-12-03T13:43:15.932Z,51.37
2022-12-03T13:46:18.206Z,50.88
2022-12-03T13:49:23.188Z,50.59
2022-12-03T13:52:26.137Z,50.34
2022-12-03T13:55:31.295Z,50.18
2022-12-03T13:58:33.442Z,49.96
2022-12-03T14:01:36.300Z,50.05
2022-12-03T14:04:38.877Z,49.30
2022-12-03T14:07:41.058Z,49.70
2022-12-03T14:10:43.138Z,49.82
2022-12-03T14:13:45.230Z,50.12
2022-12-03T14:16:47.680Z,50.28
2022-12-03T14:19:50.020Z,50.55
2022-12-03T14:22:57.669Z,50.95
2022-12-03T14:26:01.289Z,51.15
2022-12-03T14:29:08.404Z,51.56
2022-12-03T14:32:11.024Z,51.81
2022-12-03T14:35:13.183Z,51.95
2022-12-03T14:38:15.245Z,52.10
2022-12-03T14:41:36.245Z,52.16
2022-12-03T14:44:38.616Z,52.20
2022-12-03T14:47:40.713Z,52.21
2022-12-03T14:50:42.803Z,52.23
2022-12-03T14:53:44.865Z,52.29
2022-12-03T14:56:46.972Z,52.32
2022-12-03T14:59:49.079Z,52.33
2022-12-03T15:02:51.220Z,52.35
2022-12-03T15:05:53.324Z,52.34
2022-12-03T15:08:55.413Z,49.47
2022-12-03T15:11:57.501Z,48.77
2022-12-03T15:15:00.217Z,48.57
2022-12-03T15:18:02.331Z,48.13
2022-12-03T15:21:04.475Z,48.50
2022-12-03T15:24:07.025Z,48.25
2022-12-03T15:27:09.109Z,47.57
2022-12-03T15:30:11.248Z,49.29
2022-12-03T15:33:13.625Z,50.27
2022-12-03T15:36:15.752Z,50.68
2022-12-03T15:39:17.830Z,50.95
2022-12-03T15:42:20.003Z,51.40
2022-12-03T15:45:22.082Z,51.79
2022-12-03T15:48:24.146Z,51.94
2022-12-03T15:51:26.490Z,52.24
2022-12-03T15:54:28.584Z,52.46
2022-12-03T15:57:31.175Z,52.57
2022-12-03T16:00:33.212Z,52.30
2022-12-03T16:03:35.849Z,52.25
2022-12-03T16:06:38.042Z,52.71
2022-12-03T16:09:40.375Z,52.90
2022-12-03T16:12:42.460Z,53.17
2022-12-03T16:15:44.911Z,53.16
2022-12-03T16:18:46.999Z,53.30
2022-12-03T16:21:49.032Z,53.22
2022-12-03T16:24:51.107Z,53.37
2022-12-03T16:27:53.223Z,53.39
2022-12-03T16:30:55.387Z,53.32
2022-12-03T16:33:57.551Z,53.30
2022-12-03T16:36:59.718Z,53.28
2022-12-03T16:40:01.968Z,53.32
2022-12-03T16:43:04.826Z,53.52
2022-12-03T16:46:26.118Z,53.52
2022-12-03T16:49:28.763Z,53.62
2022-12-03T16:52:30.878Z,53.64
2022-12-03T16:55:33.053Z,53.70
2022-12-03T16:58:35.135Z,53.72
2022-12-03T17:01:37.304Z,53.72
2022-12-03T17:04:39.579Z,53.74
2022-12-03T17:07:41.690Z,53.75
2022-12-03T17:10:44.507Z,53.72
2022-12-03T17:13:46.805Z,53.75
2022-12-03T17:16:49.181Z,53.79
2022-12-03T17:19:51.562Z,53.77
2022-12-03T17:22:53.793Z,53.81
2022-12-03T17:25:55.851Z,53.78
2022-12-03T17:28:57.982Z,53.79
2022-12-03T17:32:00.167Z,53.78
2022-12-03T17:35:03.044Z,53.79
2022-12-03T17:38:05.357Z,53.79
2022-12-03T17:41:07.492Z,53.83
2022-12-03T17:44:12.090Z,53.80
2022-12-03T17:47:15.096Z,53.71
2022-12-03T17:50:17.257Z,53.57
2022-12-03T17:53:19.300Z,53.72
2022-12-03T17:56:21.385Z,53.81
2022-12-03T17:59:23.437Z,53.89
2022-12-03T18:02:25.508Z,54.02
2022-12-03T18:05:27.600Z,53.99
2022-12-03T18:08:29.966Z,53.99
2022-12-03T18:11:32.248Z,53.86
2022-12-03T18:14:34.415Z,53.91
2022-12-03T18:17:36.570Z,53.96
2022-12-03T18:20:39.044Z,54.00
2022-12-03T18:23:41.632Z,54.01
2022-12-03T18:26:43.762Z,53.99
2022-12-03T18:29:46.075Z,53.97
2022-12-03T18:32:48.486Z,53.97
2022-12-03T18:35:53.913Z,53.98
2022-12-03T18:38:58.135Z,54.00
2022-12-03T18:42:00.458Z,53.97
2022-12-03T18:45:02.561Z,53.97
2022-12-03T18:48:15.858Z,54.01
2022-12-03T18:51:24.709Z,54.00
2022-12-03T18:54:26.860Z,53.96
2022-12-03T18:57:28.997Z,53.96
2022-12-03T19:00:31.747Z,53.97
2022-12-03T19:03:34.283Z,53.95
2022-12-03T19:06:36.487Z,54.01
2022-12-03T19:09:38.890Z,54.02
2022-12-03T19:12:40.980Z,54.00
2022-12-03T19:15:43.091Z,53.97
2022-12-03T19:18:45.334Z,53.99
2022-12-03T19:21:47.467Z,53.86
2022-12-03T19:24:49.927Z,53.84
2022-12-03T19:27:55.052Z,53.96
2022-12-03T19:31:13.772Z,54.07
2022-12-03T19:34:16.055Z,54.04
2022-12-03T19:37:18.146Z,54.04
2022-12-03T19:40:20.371Z,54.05
2022-12-03T19:43:22.608Z,54.10
2022-12-03T19:46:28.626Z,54.05
2022-12-03T19:49:30.880Z,54.01
2022-12-03T19:52:36.262Z,53.97
2022-12-03T19:55:38.356Z,54.06
2022-12-03T19:58:42.117Z,54.04
2022-12-03T20:01:44.494Z,53.97
2022-12-03T20:04:46.660Z,53.97
2022-12-03T20:07:48.869Z,53.97
2022-12-03T20:10:51.055Z,53.98
2022-12-03T20:14:01.684Z,53.94
2022-12-03T20:17:04.033Z,53.88
2022-12-03T20:20:07.165Z,53.94
2022-12-03T20:23:09.297Z,53.88
2022-12-03T20:26:13.925Z,53.93
2022-12-03T20:29:16.056Z,53.94
2022-12-03T20:32:18.229Z,53.86
2022-12-03T20:35:20.523Z,53.84
2022-12-03T20:38:23.744Z,53.84
2022-12-03T20:41:25.921Z,53.84
2022-12-03T20:44:28.239Z,53.81
2022-12-03T20:47:30.374Z,53.81
2022-12-03T20:50:32.570Z,53.84
2022-12-03T20:53:35.258Z,53.87
2022-12-03T20:56:39.444Z,53.84
2022-12-03T20:59:41.582Z,53.83
2022-12-03T21:02:43.766Z,53.83
2022-12-03T21:05:48.276Z,53.75
2022-12-03T21:08:52.169Z,53.72
2022-12-03T21:11:54.352Z,53.78
2022-12-03T21:14:56.482Z,53.81
2022-12-03T21:17:58.597Z,53.79
2022-12-03T21:21:02.236Z,53.82
2022-12-03T21:24:04.552Z,53.88
2022-12-03T21:27:06.671Z,53.90
2022-12-03T21:30:09.078Z,53.81
2022-12-03T21:33:11.163Z,53.87
2022-12-03T21:36:15.954Z,53.82
2022-12-03T21:39:19.262Z,53.81
2022-12-03T21:42:36.394Z,53.88
2022-12-03T21:45:42.528Z,53.88
2022-12-03T21:48:45.261Z,53.85
2022-12-03T21:51:47.435Z,53.92
2022-12-03T21:54:52.509Z,53.94
2022-12-03T21:57:54.600Z,53.97
2022-12-03T22:00:56.664Z,54.04
2022-12-03T22:03:59.037Z,54.04
2022-12-03T22:07:01.072Z,54.04
2022-12-03T22:10:04.489Z,54.10
2022-12-03T22:13:06.538Z,54.15
2022-12-03T22:16:11.826Z,54.14
2022-12-03T22:19:13.903Z,54.09
2022-12-03T22:22:15.966Z,54.17
2022-12-03T22:25:18.040Z,54.13
2022-12-03T22:28:20.060Z,54.13
2022-12-03T22:31:22.120Z,54.10
2022-12-03T22:34:24.271Z,54.06
2022-12-03T22:37:26.289Z,54.11
2022-12-03T22:40:28.391Z,54.10
2022-12-03T22:43:30.435Z,54.18
2022-12-03T22:46:32.538Z,54.23
2022-12-03T22:49:34.887Z,54.31
2022-12-03T22:52:36.946Z,54.35
2022-12-03T22:55:39.736Z,54.36
2022-12-03T22:58:41.896Z,54.42
2022-12-03T23:01:43.905Z,54.47
2022-12-03T23:04:45.988Z,54.49
2022-12-03T23:07:48.159Z,54.53
2022-12-03T23:10:52.385Z,54.52
2022-12-03T23:13:54.576Z,54.54
2022-12-03T23:16:56.681Z,54.55
2022-12-03T23:19:58.703Z,54.56
2022-12-03T23:23:00.723Z,54.60
2022-12-03T23:26:05.892Z,54.58
2022-12-03T23:29:08.653Z,54.60
2022-12-03T23:32:10.798Z,54.57
2022-12-03T23:35:13.042Z,54.61
2022-12-03T23:38:15.490Z,54.62
2022-12-03T23:41:20.514Z,54.64
2022-12-03T23:44:22.789Z,54.71
2022-12-03T23:47:24.838Z,54.73
2022-12-03T23:50:27.755Z,54.70
2022-12-03T23:53:29.778Z,54.73
2022-12-03T23:56:32.396Z,54.68
2022-12-03T23:59:34.525Z,54.69
